createdAt,value
2023-02-19T00:01:25.918Z,7.62
2023-02-19T00:03:56.415Z,7.51
2023-02-19T00:06:24.869Z,7.54
2023-02-19T00:08:51.397Z,7.65
2023-02-19T00:11:20.153Z,7.54
2023-02-19T00:13:49.274Z,7.67
2023-02-19T00:16:18.448Z,7.45
2023-02-19T00:18:45.390Z,7.58
2023-02-19T00:21:12.322Z,7.68
2023-02-19T00:23:39.146Z,7.96
2023-02-19T00:26:17.490Z,7.84
2023-02-19T00:28:45.713Z,7.88
2023-02-19T00:31:19.276Z,7.85
2023-02-19T00:33:48.864Z,7.72
2023-02-19T00:36:15.778Z,7.58
2023-02-19T00:38:43.572Z,7.74
2023-02-19T00:41:20.095Z,7.61
2023-02-19T00:43:54.720Z,7.42
2023-02-19T00:46:31.674Z,7.10
2023-02-19T00:48:58.982Z,6.73
2023-02-19T00:51:28.664Z,7.03
2023-02-19T00:53:55.499Z,6.98
2023-02-19T00:56:22.442Z,7.39
2023-02-19T00:58:49.378Z,7.43
2023-02-19T01:01:16.722Z,7.09
2023-02-19T01:03:43.856Z,7.10
2023-02-19T01:06:11.332Z,7.16
2023-02-19T01:08:38.338Z,7.49
2023-02-19T01:11:05.800Z,7.32
2023-02-19T01:13:33.490Z,6.90
2023-02-19T01:16:21.248Z,7.21
2023-02-19T01:18:49.288Z,7.17
2023-02-19T01:21:21.896Z,6.85
2023-02-19T01:23:53.385Z,7.04
2023-02-19T01:26:22.713Z,7.24
2023-02-19T01:28:49.788Z,7.14
2023-02-19T01:31:20.357Z,7.70
2023-02-19T01:33:48.792Z,7.16
2023-02-19T01:36:15.886Z,7.03
2023-02-19T01:38:42.834Z,7.26
2023-02-19T01:41:12.732Z,7.56
2023-02-19T01:44:04.388Z,6.76
2023-02-19T01:46:33.344Z,6.73
2023-02-19T01:49:04.738Z,6.97
2023-02-19T01:51:32.675Z,6.54
2023-02-19T01:54:00.729Z,6.14
2023-02-19T01:56:27.757Z,5.99
2023-02-19T01:58:54.738Z,6.46
2023-02-19T02:01:21.457Z,6.83
2023-02-19T02:03:49.005Z,6.65
2023-02-19T02:06:25.034Z,6.92
2023-02-19T02:09:12.741Z,6.88
2023-02-19T02:11:42.749Z,6.74
2023-02-19T02:14:09.214Z,7.10
2023-02-19T02:16:52.710Z,6.92
2023-02-19T02:19:44.080Z,7.32
2023-02-19T02:22:21.129Z,7.18
2023-02-19T02:25:21.440Z,6.81
2023-02-19T02:27:53.937Z,6.99
2023-02-19T02:30:36.036Z,6.70
2023-02-19T02:33:07.300Z,6.98
2023-02-19T02:35:40.051Z,7.21
2023-02-19T02:38:08.416Z,6.59
2023-02-19T02:40:34.989Z,6.69
2023-02-19T02:43:01.650Z,6.99
2023-02-19T02:45:35.626Z,6.90
2023-02-19T02:48:25.184Z,6.84
2023-02-19T02:51:07.384Z,6.68
2023-02-19T02:54:00.555Z,6.60
2023-02-19T02:56:27.113Z,6.15
2023-02-19T02:58:54.511Z,6.32
2023-02-19T03:01:43.497Z,6.85
2023-02-19T03:04:14.381Z,6.84
2023-02-19T03:06:42.201Z,6.20
2023-02-19T03:09:15.308Z,6.20
2023-02-19T03:12:03.367Z,6.00
2023-02-19T03:14:58.017Z,6.68
2023-02-19T03:17:54.159Z,6.66
2023-02-19T03:20:23.334Z,6.36
2023-02-19T03:22:51.258Z,6.28
2023-02-19T03:25:38.721Z,6.01
2023-02-19T03:28:07.479Z,6.28
2023-02-19T03:30:36.870Z,6.77
2023-02-19T03:33:09.306Z,6.83
2023-02-19T03:35:42.475Z,6.65
2023-02-19T03:38:13.482Z,6.66
2023-02-19T03:41:10.850Z,6.55
2023-02-19T03:43:54.242Z,6.58
2023-02-19T03:46:23.251Z,6.69
2023-02-19T03:49:00.366Z,6.49
2023-02-19T03:51:32.990Z,6.46
2023-02-19T03:54:15.252Z,6.60
2023-02-19T03:56:52.528Z,6.27
2023-02-19T03:59:28.305Z,6.17
2023-02-19T04:02:05.729Z,6.36
2023-02-19T04:04:57.654Z,6.24
2023-02-19T04:07:25.676Z,5.86
2023-02-19T04:09:52.239Z,5.62
2023-02-19T04:12:19.185Z,5.39
2023-02-19T04:14:53.077Z,5.45
2023-02-19T04:17:24.011Z,5.28
2023-02-19T04:19:51.635Z,5.37
2023-02-19T04:22:18.430Z,5.45
2023-02-19T04:24:48.316Z,5.39
2023-02-19T04:27:15.066Z,5.24
2023-02-19T04:29:41.602Z,5.22
2023-02-19T04:32:10.851Z,5.17
2023-02-19T04:34:37.327Z,4.84
2023-02-19T04:37:04.012Z,5.04
2023-02-19T04:39:30.556Z,5.18
2023-02-19T04:41:57.094Z,4.91
2023-02-19T04:44:23.601Z,4.77
2023-02-19T04:46:50.062Z,4.96
2023-02-19T04:49:16.525Z,4.76
2023-02-19T04:51:43.000Z,4.77
2023-02-19T04:54:09.594Z,4.98
2023-02-19T04:56:36.054Z,5.02
2023-02-19T04:59:02.572Z,4.65
2023-02-19T05:01:29.303Z,4.87
2023-02-19T05:03:55.899Z,5.02
2023-02-19T05:06:22.384Z,4.91
2023-02-19T05:08:48.958Z,5.09
2023-02-19T05:11:15.469Z,4.70
2023-02-19T05:13:42.081Z,4.99
2023-02-19T05:16:13.971Z,4.82
2023-02-19T05:18:41.416Z,5.01
2023-02-19T05:21:08.517Z,4.65
2023-02-19T05:23:35.333Z,4.58
2023-02-19T05:26:09.584Z,4.92
2023-02-19T05:28:36.337Z,4.53
2023-02-19T05:31:07.872Z,4.36
2023-02-19T05:33:34.939Z,4.44
2023-02-19T05:36:06.078Z,4.61
2023-02-19T05:38:32.566Z,4.54
2023-02-19T05:41:08.606Z,4.47
2023-02-19T05:43:35.372Z,4.59
2023-02-19T05:46:01.879Z,4.88
2023-02-19T05:48:28.382Z,4.47
2023-02-19T05:50:54.882Z,4.41
2023-02-19T05:53:21.332Z,4.59
2023-02-19T05:55:47.784Z,4.25
2023-02-19T05:58:14.235Z,4.36
2023-02-19T06:00:40.710Z,4.50
2023-02-19T06:03:07.227Z,4.25
2023-02-19T06:05:33.717Z,4.23
2023-02-19T06:08:00.161Z,4.53
2023-02-19T06:10:28.308Z,4.29
2023-02-19T06:12:55.154Z,4.09
2023-02-19T06:15:21.927Z,4.39
2023-02-19T06:17:48.842Z,4.18
2023-02-19T06:20:15.487Z,4.41
2023-02-19T06:22:41.980Z,4.50
2023-02-19T06:25:12.525Z,4.59
2023-02-19T06:27:39.534Z,4.24
2023-02-19T06:30:06.634Z,4.45
2023-02-19T06:32:33.242Z,4.67
2023-02-19T06:34:59.792Z,4.52
2023-02-19T06:37:26.230Z,4.25
2023-02-19T06:39:52.720Z,4.38
2023-02-19T06:42:19.285Z,4.92
2023-02-19T06:44:45.780Z,4.06
2023-02-19T06:47:12.276Z,4.30
2023-02-19T06:49:41.820Z,4.40
2023-02-19T06:52:08.475Z,4.31
2023-02-19T06:54:34.963Z,4.40
2023-02-19T06:57:01.683Z,4.70
2023-02-19T06:59:28.231Z,4.55
2023-02-19T07:01:54.683Z,4.66
2023-02-19T07:04:21.242Z,4.13
2023-02-19T07:06:47.771Z,4.47
2023-02-19T07:09:14.313Z,4.58
2023-02-19T07:11:40.810Z,4.31
2023-02-19T07:14:08.871Z,4.25
2023-02-19T07:16:36.258Z,4.21
2023-02-19T07:19:02.997Z,4.41
2023-02-19T07:21:29.764Z,3.97
2023-02-19T07:23:57.044Z,4.24
2023-02-19T07:26:24.036Z,4.25
2023-02-19T07:28:51.860Z,4.01
2023-02-19T07:31:20.061Z,3.88
2023-02-19T07:33:47.200Z,4.01
2023-02-19T07:36:15.240Z,4.34
2023-02-19T07:38:41.712Z,4.01
2023-02-19T07:41:08.592Z,4.35
2023-02-19T07:43:36.600Z,4.46
2023-02-19T07:46:05.027Z,4.15
2023-02-19T07:48:31.518Z,4.01
2023-02-19T07:51:00.059Z,3.92
2023-02-19T07:53:27.417Z,4.11
2023-02-19T07:55:54.022Z,4.44
2023-02-19T07:58:20.479Z,4.72
2023-02-19T08:00:46.950Z,4.06
2023-02-19T08:03:13.440Z,4.50
2023-02-19T08:05:42.203Z,4.65
2023-02-19T08:08:10.873Z,4.66
2023-02-19T08:10:55.996Z,4.91
2023-02-19T08:13:23.206Z,4.76
2023-02-19T08:15:52.134Z,4.34
2023-02-19T08:18:20.578Z,5.24
2023-02-19T08:20:47.214Z,4.66
2023-02-19T08:23:14.013Z,5.18
2023-02-19T08:25:41.400Z,5.20
2023-02-19T08:28:09.903Z,5.59
2023-02-19T08:30:38.515Z,4.75
2023-02-19T08:33:06.813Z,5.29
2023-02-19T08:35:35.804Z,5.35
2023-02-19T08:38:02.904Z,5.76
2023-02-19T08:40:29.461Z,5.26
2023-02-19T08:42:55.930Z,6.00
2023-02-19T08:45:24.279Z,6.24
2023-02-19T08:47:50.841Z,6.31
2023-02-19T08:50:17.328Z,5.44
2023-02-19T08:52:43.800Z,5.49
2023-02-19T08:55:10.337Z,5.68
2023-02-19T08:57:41.585Z,5.81
2023-02-19T09:00:09.096Z,5.71
2023-02-19T09:02:35.985Z,5.91
2023-02-19T09:05:02.509Z,6.28
2023-02-19T09:07:29.046Z,6.12
2023-02-19T09:09:55.508Z,6.14
2023-02-19T09:12:21.971Z,6.13
2023-02-19T09:14:48.619Z,6.58
2023-02-19T09:17:15.127Z,6.38
2023-02-19T09:19:41.903Z,6.60
2023-02-19T09:22:08.659Z,5.95
2023-02-19T09:24:35.398Z,6.27
2023-02-19T09:27:01.914Z,6.35
2023-02-19T09:29:29.096Z,6.79
2023-02-19T09:31:59.554Z,6.65
2023-02-19T09:34:27.301Z,6.64
2023-02-19T09:36:54.722Z,6.58
2023-02-19T09:39:21.498Z,6.78
2023-02-19T09:41:56.109Z,6.59
2023-02-19T09:44:29.262Z,6.88
2023-02-19T09:46:56.332Z,6.54
2023-02-19T09:49:30.943Z,7.37
2023-02-19T09:52:07.277Z,6.68
2023-02-19T09:54:39.568Z,6.65
2023-02-19T09:57:13.187Z,7.50
2023-02-19T09:59:42.461Z,6.82
2023-02-19T10:02:16.151Z,7.43
2023-02-19T10:04:44.043Z,8.04
2023-02-19T10:07:13.410Z,7.26
2023-02-19T10:09:39.982Z,7.63
2023-02-19T10:12:19.280Z,7.25
2023-02-19T10:14:49.114Z,6.83
2023-02-19T10:17:27.667Z,7.47
2023-02-19T10:19:54.247Z,7.27
2023-02-19T10:22:20.782Z,7.20
2023-02-19T10:24:51.747Z,7.90
2023-02-19T10:27:18.743Z,7.37
2023-02-19T10:29:46.901Z,7.80
2023-02-19T10:32:24.165Z,7.71
2023-02-19T10:35:09.633Z,7.69
2023-02-19T10:37:36.886Z,7.59
2023-02-19T10:40:03.607Z,7.71
2023-02-19T10:42:30.173Z,8.35
2023-02-19T10:45:01.808Z,7.75
2023-02-19T10:47:30.255Z,8.33
2023-02-19T10:49:58.410Z,7.94
2023-02-19T10:52:28.695Z,7.80
2023-02-19T10:55:25.705Z,7.69
2023-02-19T10:57:52.164Z,8.28
2023-02-19T11:00:30.557Z,8.72
2023-02-19T11:03:32.684Z,8.42
2023-02-19T11:06:03.856Z,7.84
2023-02-19T11:08:31.318Z,7.63
2023-02-19T11:10:57.856Z,7.88
2023-02-19T11:13:33.296Z,8.31
2023-02-19T11:16:00.322Z,7.96
2023-02-19T11:18:33.382Z,7.92
2023-02-19T11:21:05.122Z,8.55
2023-02-19T11:23:37.386Z,7.76
2023-02-19T11:26:06.541Z,8.22
2023-02-19T11:28:35.465Z,9.27
2023-02-19T11:31:20.387Z,8.78
2023-02-19T11:33:57.247Z,8.72
2023-02-19T11:36:31.026Z,8.21
2023-02-19T11:38:59.207Z,8.59
2023-02-19T11:41:44.011Z,8.85
2023-02-19T11:44:31.811Z,8.93
2023-02-19T11:47:17.260Z,8.76
2023-02-19T11:49:50.283Z,8.60
2023-02-19T11:52:58.910Z,8.70
2023-02-19T11:55:47.030Z,8.86
2023-02-19T11:58:44.519Z,9.24
2023-02-19T12:01:33.773Z,8.93
2023-02-19T12:04:31.194Z,9.09
2023-02-19T12:07:11.702Z,8.58
2023-02-19T12:10:04.146Z,9.26
2023-02-19T12:12:41.692Z,9.19
2023-02-19T12:15:26.406Z,8.89
2023-02-19T12:18:00.031Z,8.94
2023-02-19T12:20:41.665Z,8.73
2023-02-19T12:23:38.455Z,8.32
2023-02-19T12:26:16.925Z,9.05
2023-02-19T12:28:43.346Z,8.56
2023-02-19T12:31:34.672Z,9.19
2023-02-19T12:34:10.788Z,9.32
2023-02-19T12:36:54.497Z,8.57
2023-02-19T12:39:34.258Z,8.61
2023-02-19T12:42:25.974Z,8.43
2023-02-19T12:44:58.783Z,9.03
2023-02-19T12:47:29.893Z,8.78
2023-02-19T12:50:24.755Z,9.23
2023-02-19T12:52:57.318Z,8.88
2023-02-19T12:55:34.572Z,8.65
2023-02-19T12:58:05.885Z,9.16
2023-02-19T13:00:36.734Z,9.57
2023-02-19T13:03:09.991Z,9.68
2023-02-19T13:06:00.004Z,8.94
2023-02-19T13:08:36.566Z,9.19
2023-02-19T13:11:15.858Z,8.70
2023-02-19T13:14:24.429Z,8.76
2023-02-19T13:16:57.520Z,9.20
2023-02-19T13:19:25.379Z,9.23
2023-02-19T13:22:36.960Z,9.27
2023-02-19T13:25:08.126Z,9.45
2023-02-19T13:28:24.573Z,9.02
2023-02-19T13:31:08.618Z,8.50
2023-02-19T13:34:20.748Z,9.09
2023-02-19T13:36:49.893Z,9.37
2023-02-19T13:39:18.385Z,9.45
2023-02-19T13:42:04.189Z,9.47
2023-02-19T13:44:33.927Z,10.16
2023-02-19T13:47:01.265Z,8.95
2023-02-19T13:49:37.255Z,8.73
2023-02-19T13:52:28.941Z,9.12
2023-02-19T13:55:33.358Z,9.08
2023-02-19T13:58:33.734Z,9.14
2023-02-19T14:01:10.428Z,9.27
2023-02-19T14:03:37.896Z,8.83
2023-02-19T14:06:10.584Z,8.81
2023-02-19T14:08:51.406Z,8.46
2023-02-19T14:11:48.242Z,8.63
2023-02-19T14:14:37.440Z,8.99
2023-02-19T14:17:09.835Z,8.63
2023-02-19T14:19:42.641Z,8.79
2023-02-19T14:22:56.862Z,8.51
2023-02-19T14:25:40.112Z,8.52
2023-02-19T14:28:15.714Z,8.29
2023-02-19T14:30:50.294Z,8.24
2023-02-19T14:33:19.881Z,8.60
2023-02-19T14:35:49.229Z,8.74
2023-02-19T14:38:26.132Z,8.24
2023-02-19T14:40:53.800Z,8.07
2023-02-19T14:43:22.691Z,8.74
2023-02-19T14:46:00.944Z,8.32
2023-02-19T14:48:34.623Z,8.68
2023-02-19T14:51:06.120Z,8.82
2023-02-19T14:53:37.859Z,8.59
2023-02-19T14:56:05.198Z,8.16
2023-02-19T14:58:32.736Z,7.93
2023-02-19T15:00:59.832Z,7.60
2023-02-19T15:03:31.218Z,8.62
2023-02-19T15:06:16.429Z,8.01
2023-02-19T15:08:52.516Z,8.11
2023-02-19T15:11:21.917Z,8.48
2023-02-19T15:13:54.753Z,8.53
2023-02-19T15:16:24.669Z,8.14
2023-02-19T15:18:52.545Z,8.70
2023-02-19T15:21:23.933Z,7.91
2023-02-19T15:23:51.504Z,7.92
2023-02-19T15:26:21.611Z,8.87
2023-02-19T15:28:57.336Z,8.50
2023-02-19T15:31:23.913Z,7.97
2023-02-19T15:33:53.822Z,7.92
2023-02-19T15:36:28.140Z,8.45
2023-02-19T15:38:56.963Z,8.18
2023-02-19T15:41:25.969Z,7.73
2023-02-19T15:44:24.588Z,7.89
2023-02-19T15:46:51.261Z,8.33
2023-02-19T15:49:24.339Z,8.57
2023-02-19T15:51:56.759Z,9.04
2023-02-19T15:54:34.331Z,8.80
2023-02-19T15:57:07.442Z,8.59
2023-02-19T15:59:41.311Z,8.92
2023-02-19T16:02:13.475Z,8.43
2023-02-19T16:04:42.018Z,8.61
2023-02-19T16:07:24.006Z,8.06
2023-02-19T16:10:05.809Z,8.18
2023-02-19T16:12:32.792Z,8.02
2023-02-19T16:14:59.329Z,7.60
2023-02-19T16:17:28.113Z,7.56
2023-02-19T16:19:57.671Z,7.69
2023-02-19T16:22:26.722Z,7.57
2023-02-19T16:24:59.059Z,7.71
2023-02-19T16:27:40.676Z,7.63
2023-02-19T16:30:16.239Z,8.04
2023-02-19T16:32:45.395Z,7.78
2023-02-19T16:35:38.465Z,7.52
2023-02-19T16:38:13.683Z,7.73
2023-02-19T16:40:43.188Z,7.84
2023-02-19T16:43:15.689Z,8.48
2023-02-19T16:45:45.918Z,7.47
2023-02-19T16:48:12.903Z,7.86
2023-02-19T16:50:41.531Z,7.80
2023-02-19T16:53:19.334Z,7.98
2023-02-19T16:55:46.162Z,8.42
2023-02-19T16:58:12.730Z,8.26
2023-02-19T17:00:39.942Z,7.40
2023-02-19T17:03:11.956Z,7.99
2023-02-19T17:05:39.830Z,8.45
2023-02-19T17:08:37.120Z,8.32
2023-02-19T17:11:06.032Z,8.01
2023-02-19T17:13:33.736Z,8.22
2023-02-19T17:16:00.255Z,7.83
2023-02-19T17:18:26.793Z,8.01
2023-02-19T17:21:21.353Z,8.07
2023-02-19T17:23:47.936Z,7.97
2023-02-19T17:26:20.473Z,8.16
2023-02-19T17:28:47.396Z,7.97
2023-02-19T17:31:17.436Z,8.29
2023-02-19T17:33:44.503Z,8.34
2023-02-19T17:36:22.129Z,7.92
2023-02-19T17:38:48.679Z,7.72
2023-02-19T17:41:15.451Z,8.42
2023-02-19T17:43:41.882Z,8.20
2023-02-19T17:46:17.052Z,7.91
2023-02-19T17:48:43.643Z,7.69
2023-02-19T17:51:10.698Z,7.61
2023-02-19T17:53:37.524Z,7.59
2023-02-19T17:56:04.379Z,7.86
2023-02-19T17:58:30.886Z,7.69
2023-02-19T18:00:57.527Z,7.44
2023-02-19T18:03:24.843Z,7.54
2023-02-19T18:05:51.611Z,7.30
2023-02-19T18:08:18.277Z,7.49
2023-02-19T18:10:44.901Z,7.53
2023-02-19T18:13:11.863Z,7.82
2023-02-19T18:15:38.385Z,7.87
2023-02-19T18:18:05.007Z,7.92
2023-02-19T18:20:31.864Z,7.89
2023-02-19T18:22:58.741Z,7.89
2023-02-19T18:25:25.414Z,7.76
2023-02-19T18:27:51.929Z,7.62
2023-02-19T18:30:20.478Z,7.32
2023-02-19T18:32:49.902Z,7.61
2023-02-19T18:35:17.788Z,7.20
2023-02-19T18:37:44.291Z,7.60
2023-02-19T18:40:11.885Z,7.52
2023-02-19T18:42:39.224Z,7.80
2023-02-19T18:45:05.877Z,7.46
2023-02-19T18:47:32.326Z,7.61
2023-02-19T18:49:59.612Z,7.14
2023-02-19T18:52:27.205Z,8.07
2023-02-19T18:54:55.195Z,7.76
2023-02-19T18:57:22.723Z,7.80
2023-02-19T18:59:49.775Z,8.01
2023-02-19T19:02:16.391Z,7.71
2023-02-19T19:04:43.297Z,7.83
2023-02-19T19:07:10.367Z,7.49
2023-02-19T19:09:37.039Z,7.81
2023-02-19T19:12:03.961Z,7.43
2023-02-19T19:14:30.430Z,7.88
2023-02-19T19:16:56.994Z,7.55
2023-02-19T19:19:23.479Z,7.54
2023-02-19T19:21:53.282Z,7.55
2023-02-19T19:24:20.518Z,7.58
2023-02-19T19:26:48.996Z,7.02
2023-02-19T19:29:17.229Z,7.47
2023-02-19T19:31:44.435Z,7.17
2023-02-19T19:34:11.702Z,7.26
2023-02-19T19:36:38.507Z,7.40
2023-02-19T19:39:05.146Z,7.10
2023-02-19T19:41:31.936Z,7.06
2023-02-19T19:44:02.568Z,7.01
2023-02-19T19:46:29.141Z,7.02
2023-02-19T19:48:55.617Z,7.31
2023-02-19T19:51:22.065Z,7.09
2023-02-19T19:53:49.367Z,7.22
2023-02-19T19:56:16.938Z,7.09
2023-02-19T19:58:43.474Z,7.31
2023-02-19T20:01:10.335Z,7.19
2023-02-19T20:03:37.659Z,7.10
2023-02-19T20:06:04.434Z,6.92
2023-02-19T20:08:30.916Z,7.07
2023-02-19T20:10:57.387Z,7.52
2023-02-19T20:13:24.731Z,7.02
2023-02-19T20:15:51.880Z,7.00
2023-02-19T20:18:18.366Z,6.66
2023-02-19T20:20:44.845Z,7.01
2023-02-19T20:23:11.376Z,6.97
2023-02-19T20:25:37.906Z,6.94
2023-02-19T20:28:04.486Z,7.21
2023-02-19T20:30:30.991Z,7.03
2023-02-19T20:32:57.562Z,6.90
2023-02-19T20:35:28.466Z,6.93
2023-02-19T20:37:55.602Z,7.04
2023-02-19T20:40:27.344Z,6.94
2023-02-19T20:42:54.139Z,7.09
2023-02-19T20:45:21.379Z,6.96
2023-02-19T20:47:48.032Z,7.30
2023-02-19T20:50:17.358Z,7.27
2023-02-19T20:52:43.980Z,7.15
2023-02-19T20:55:10.561Z,6.72
2023-02-19T20:57:37.616Z,7.22
2023-02-19T21:00:05.705Z,7.13
2023-02-19T21:02:32.216Z,7.12
2023-02-19T21:04:58.772Z,7.11
2023-02-19T21:07:25.606Z,6.84
2023-02-19T21:09:52.640Z,7.07
2023-02-19T21:12:20.466Z,7.57
2023-02-19T21:14:47.107Z,6.82
2023-02-19T21:17:13.698Z,6.78
2023-02-19T21:19:40.264Z,7.19
2023-02-19T21:22:06.775Z,6.85
2023-02-19T21:24:33.680Z,6.90
2023-02-19T21:27:00.437Z,7.53
2023-02-19T21:29:27.200Z,7.35
2023-02-19T21:31:56.008Z,7.18
2023-02-19T21:34:28.511Z,7.21
2023-02-19T21:36:57.500Z,7.10
2023-02-19T21:39:25.632Z,7.02
2023-02-19T21:41:52.323Z,7.21
2023-02-19T21:44:21.256Z,7.36
2023-02-19T21:46:48.109Z,7.06
2023-02-19T21:49:14.618Z,7.06
2023-02-19T21:51:42.706Z,6.95
2023-02-19T21:54:24.708Z,7.19
2023-02-19T21:56:52.579Z,6.94
2023-02-19T21:59:20.333Z,7.14
2023-02-19T22:01:47.124Z,7.04
2023-02-19T22:04:16.910Z,6.95
2023-02-19T22:06:44.219Z,7.23
2023-02-19T22:09:11.176Z,6.94
2023-02-19T22:11:38.181Z,7.49
2023-02-19T22:14:04.671Z,7.45
2023-02-19T22:16:31.273Z,7.51
2023-02-19T22:18:59.287Z,7.88
2023-02-19T22:21:33.633Z,7.50
2023-02-19T22:24:01.393Z,7.30
2023-02-19T22:26:34.568Z,7.32
2023-02-19T22:29:05.928Z,7.39
2023-02-19T22:31:32.957Z,7.61
2023-02-19T22:33:59.515Z,7.36
2023-02-19T22:36:28.634Z,7.28
2023-02-19T22:38:55.105Z,7.26
2023-02-19T22:41:21.747Z,7.54
2023-02-19T22:43:48.991Z,7.40
2023-02-19T22:46:19.499Z,7.34
2023-02-19T22:48:46.327Z,7.47
2023-02-19T22:51:15.143Z,7.38
2023-02-19T22:53:51.688Z,7.15
2023-02-19T22:56:19.614Z,7.37
2023-02-19T22:58:46.071Z,7.35
2023-02-19T23:01:13.413Z,7.14
2023-02-19T23:03:57.168Z,7.13
2023-02-19T23:06:28.592Z,7.48
2023-02-19T23:08:56.715Z,7.30
2023-02-19T23:11:25.749Z,7.49
2023-02-19T23:13:52.683Z,7.56
2023-02-19T23:16:19.240Z,7.51
2023-02-19T23:18:45.988Z,6.77
2023-02-19T23:21:13.265Z,7.06
2023-02-19T23:23:43.525Z,7.45
2023-02-19T23:26:10.532Z,7.78
2023-02-19T23:28:39.200Z,7.33
2023-02-19T23:31:05.911Z,7.14
2023-02-19T23:33:32.505Z,7.31
2023-02-19T23:35:59.272Z,6.74
2023-02-19T23:38:25.749Z,7.31
2023-02-19T23:40:52.239Z,7.24
2023-02-19T23:43:18.705Z,7.41
2023-02-19T23:45:45.153Z,6.93
2023-02-19T23:48:11.813Z,7.16
2023-02-19T23:50:38.368Z,7.54
2023-02-19T23:53:04.873Z,7.33
2023-02-19T23:55:31.311Z,7.24
2023-02-19T23:57:57.785Z,7.05
